sensor_id;sensor_type;location;lat;lon;timestamp;P1;durP1;ratioP1;P2;durP2;ratioP2
22963;SDS011;11648;49.306;6.934;2023-05-10T00:00:46;3.63;;;2.20;;
22963;SDS011;11648;49.306;6.934;2023-05-10T00:03:13;4.60;;;1.90;;
22963;SDS011;11648;49.306;6.934;2023-05-10T00:05:40;3.53;;;2.20;;
22963;SDS011;11648;49.306;6.934;2023-05-10T00:08:06;3.23;;;2.27;;
22963;SDS011;11648;49.306;6.934;2023-05-10T00:10:33;5.27;;;2.70;;
22963;SDS011;11648;49.306;6.934;2023-05-10T00:13:00;4.70;;;2.40;;
22963;SDS011;11648;49.306;6.934;2023-05-10T00:15:27;4.17;;;2.47;;
22963;SDS011;11648;49.306;6.934;2023-05-10T00:17:54;3.43;;;1.77;;
22963;SDS011;11648;49.306;6.934;2023-05-10T00:20:20;2.70;;;1.73;;
22963;SDS011;11648;49.306;6.934;2023-05-10T00:22:47;1.80;;;1.50;;
22963;SDS011;11648;49.306;6.934;2023-05-10T00:25:14;2.83;;;2.10;;
22963;SDS011;11648;49.306;6.934;2023-05-10T00:27:40;3.10;;;2.30;;
22963;SDS011;11648;49.306;6.934;2023-05-10T00:30:07;2.73;;;2.17;;
22963;SDS011;11648;49.306;6.934;2023-05-10T00:32:34;6.03;;;2.20;;
22963;SDS011;11648;49.306;6.934;2023-05-10T00:35:01;2.93;;;2.10;;
22963;SDS011;11648;49.306;6.934;2023-05-10T00:37:28;3.00;;;2.50;;
22963;SDS011;11648;49.306;6.934;2023-05-10T00:39:54;4.10;;;2.80;;
22963;SDS011;11648;49.306;6.934;2023-05-10T00:42:21;4.13;;;2.70;;
22963;SDS011;11648;49.306;6.934;2023-05-10T00:44:50;5.10;;;3.17;;
22963;SDS011;11648;49.306;6.934;2023-05-10T00:47:17;4.00;;;3.00;;
22963;SDS011;11648;49.306;6.934;2023-05-10T00:49:44;3.40;;;2.90;;
22963;SDS011;11648;49.306;6.934;2023-05-10T00:52:12;4.97;;;2.80;;
22963;SDS011;11648;49.306;6.934;2023-05-10T00:54:40;4.47;;;3.33;;
22963;SDS011;11648;49.306;6.934;2023-05-10T00:57:06;5.70;;;3.57;;
22963;SDS011;11648;49.306;6.934;2023-05-10T00:59:34;6.20;;;3.60;;
22963;SDS011;11648;49.306;6.934;2023-05-10T01:02:01;4.93;;;3.97;;
22963;SDS011;11648;49.306;6.934;2023-05-10T01:04:28;5.20;;;3.90;;
22963;SDS011;11648;49.306;6.934;2023-05-10T01:06:56;4.30;;;3.50;;
22963;SDS011;11648;49.306;6.934;2023-05-10T01:09:23;5.40;;;3.80;;
22963;SDS011;11648;49.306;6.934;2023-05-10T01:11:52;5.30;;;3.67;;
22963;SDS011;11648;49.306;6.934;2023-05-10T01:14:20;4.43;;;3.47;;
22963;SDS011;11648;49.306;6.934;2023-05-10T01:16:48;5.70;;;4.00;;
22963;SDS011;11648;49.306;6.934;2023-05-10T01:19:19;4.57;;;4.17;;
22963;SDS011;11648;49.306;6.934;2023-05-10T01:33:10;6.17;;;5.57;;
22963;SDS011;11648;49.306;6.934;2023-05-10T01:41:20;7.70;;;5.70;;
22963;SDS011;11648;49.306;6.934;2023-05-10T01:44:06;9.43;;;5.83;;
22963;SDS011;11648;49.306;6.934;2023-05-10T01:46:46;6.83;;;6.13;;
22963;SDS011;11648;49.306;6.934;2023-05-10T01:49:29;8.07;;;5.87;;
22963;SDS011;11648;49.306;6.934;2023-05-10T01:52:00;8.80;;;6.43;;
22963;SDS011;11648;49.306;6.934;2023-05-10T01:54:33;7.33;;;5.93;;
22963;SDS011;11648;49.306;6.934;2023-05-10T01:57:03;9.37;;;6.33;;
22963;SDS011;11648;49.306;6.934;2023-05-10T01:59:35;7.53;;;5.90;;
22963;SDS011;11648;49.306;6.934;2023-05-10T02:02:07;7.83;;;6.40;;
22963;SDS011;11648;49.306;6.934;2023-05-10T02:04:38;7.13;;;6.10;;
22963;SDS011;11648;49.306;6.934;2023-05-10T02:07:07;6.90;;;6.20;;
22963;SDS011;11648;49.306;6.934;2023-05-10T02:09:35;7.47;;;6.13;;
22963;SDS011;11648;49.306;6.934;2023-05-10T02:12:03;9.53;;;6.20;;
22963;SDS011;11648;49.306;6.934;2023-05-10T02:14:33;8.33;;;6.63;;
22963;SDS011;11648;49.306;6.934;2023-05-10T02:17:03;8.47;;;6.33;;
22963;SDS011;11648;49.306;6.934;2023-05-10T02:19:32;7.50;;;6.53;;
22963;SDS011;11648;49.306;6.934;2023-05-10T02:22:00;8.37;;;6.60;;
22963;SDS011;11648;49.306;6.934;2023-05-10T02:24:28;8.60;;;6.50;;
22963;SDS011;11648;49.306;6.934;2023-05-10T02:26:55;8.17;;;6.67;;
22963;SDS011;11648;49.306;6.934;2023-05-10T02:29:24;7.13;;;5.90;;
22963;SDS011;11648;49.306;6.934;2023-05-10T02:31:53;7.47;;;6.17;;
22963;SDS011;11648;49.306;6.934;2023-05-10T02:34:23;7.37;;;6.37;;
22963;SDS011;11648;49.306;6.934;2023-05-10T02:36:54;9.00;;;6.33;;
22963;SDS011;11648;49.306;6.934;2023-05-10T02:39:22;7.50;;;6.13;;
22963;SDS011;11648;49.306;6.934;2023-05-10T02:41:50;6.70;;;5.60;;
22963;SDS011;11648;49.306;6.934;2023-05-10T02:44:19;9.47;;;5.80;;
22963;SDS011;11648;49.306;6.934;2023-05-10T02:46:48;6.43;;;5.53;;
22963;SDS011;11648;49.306;6.934;2023-05-10T02:49:16;7.70;;;5.80;;
22963;SDS011;11648;49.306;6.934;2023-05-10T02:51:47;5.93;;;5.33;;
22963;SDS011;11648;49.306;6.934;2023-05-10T02:54:24;6.90;;;5.40;;
22963;SDS011;11648;49.306;6.934;2023-05-10T02:56:57;5.93;;;4.97;;
22963;SDS011;11648;49.306;6.934;2023-05-10T02:59:26;7.07;;;5.30;;
22963;SDS011;11648;49.306;6.934;2023-05-10T03:01:53;8.40;;;5.40;;
22963;SDS011;11648;49.306;6.934;2023-05-10T03:04:20;7.20;;;4.57;;
22963;SDS011;11648;49.306;6.934;2023-05-10T03:06:47;5.13;;;4.40;;
22963;SDS011;11648;49.306;6.934;2023-05-10T03:09:14;6.10;;;4.73;;
22963;SDS011;11648;49.306;6.934;2023-05-10T03:11:55;6.40;;;4.40;;
22963;SDS011;11648;49.306;6.934;2023-05-10T03:20:06;6.50;;;4.67;;
22963;SDS011;11648;49.306;6.934;2023-05-10T03:22:37;6.63;;;4.60;;
22963;SDS011;11648;49.306;6.934;2023-05-10T03:25:07;6.30;;;4.57;;
22963;SDS011;11648;49.306;6.934;2023-05-10T03:27:41;4.30;;;3.90;;
22963;SDS011;11648;49.306;6.934;2023-05-10T03:30:10;5.07;;;4.13;;
22963;SDS011;11648;49.306;6.934;2023-05-10T03:32:39;5.00;;;4.33;;
22963;SDS011;11648;49.306;6.934;2023-05-10T03:35:09;5.17;;;3.93;;
22963;SDS011;11648;49.306;6.934;2023-05-10T03:37:38;5.43;;;3.83;;
22963;SDS011;11648;49.306;6.934;2023-05-10T03:40:06;5.20;;;4.10;;
22963;SDS011;11648;49.306;6.934;2023-05-10T03:42:35;5.43;;;3.97;;
22963;SDS011;11648;49.306;6.934;2023-05-10T03:45:02;4.80;;;3.67;;
22963;SDS011;11648;49.306;6.934;2023-05-10T03:47:29;5.13;;;3.57;;
22963;SDS011;11648;49.306;6.934;2023-05-10T03:49:57;3.67;;;3.27;;
22963;SDS011;11648;49.306;6.934;2023-05-10T03:52:24;5.90;;;3.47;;
22963;SDS011;11648;49.306;6.934;2023-05-10T03:54:50;5.30;;;3.23;;
22963;SDS011;11648;49.306;6.934;2023-05-10T03:57:17;5.43;;;3.70;;
22963;SDS011;11648;49.306;6.934;2023-05-10T03:59:44;4.50;;;3.53;;
22963;SDS011;11648;49.306;6.934;2023-05-10T04:02:11;4.30;;;3.63;;
22963;SDS011;11648;49.306;6.934;2023-05-10T04:04:38;6.10;;;3.70;;
22963;SDS011;11648;49.306;6.934;2023-05-10T04:07:04;9.53;;;4.10;;
22963;SDS011;11648;49.306;6.934;2023-05-10T04:09:31;4.83;;;3.90;;
22963;SDS011;11648;49.306;6.934;2023-05-10T04:11:59;4.30;;;3.83;;
22963;SDS011;11648;49.306;6.934;2023-05-10T04:14:28;5.60;;;3.90;;
22963;SDS011;11648;49.306;6.934;2023-05-10T04:16:55;5.13;;;3.80;;
22963;SDS011;11648;49.306;6.934;2023-05-10T04:19:22;5.60;;;3.83;;
22963;SDS011;11648;49.306;6.934;2023-05-10T04:21:48;5.67;;;3.80;;
22963;SDS011;11648;49.306;6.934;2023-05-10T04:24:15;4.43;;;3.50;;
22963;SDS011;11648;49.306;6.934;2023-05-10T04:26:42;4.63;;;3.77;;
22963;SDS011;11648;49.306;6.934;2023-05-10T04:29:08;4.77;;;3.57;;
22963;SDS011;11648;49.306;6.934;2023-05-10T04:31:35;4.60;;;3.60;;
22963;SDS011;11648;49.306;6.934;2023-05-10T04:34:02;5.13;;;3.03;;
22963;SDS011;11648;49.306;6.934;2023-05-10T04:36:29;4.23;;;2.80;;
22963;SDS011;11648;49.306;6.934;2023-05-10T04:38:56;4.37;;;3.40;;
22963;SDS011;11648;49.306;6.934;2023-05-10T04:41:22;6.30;;;3.40;;
22963;SDS011;11648;49.306;6.934;2023-05-10T04:43:49;6.00;;;3.33;;
22963;SDS011;11648;49.306;6.934;2023-05-10T04:46:16;4.57;;;3.03;;
22963;SDS011;11648;49.306;6.934;2023-05-10T04:48:43;5.10;;;3.83;;
22963;SDS011;11648;49.306;6.934;2023-05-10T04:51:09;5.57;;;3.70;;
22963;SDS011;11648;49.306;6.934;2023-05-10T04:53:36;4.47;;;3.40;;
22963;SDS011;11648;49.306;6.934;2023-05-10T04:56:03;5.03;;;3.37;;
22963;SDS011;11648;49.306;6.934;2023-05-10T04:58:30;5.10;;;3.40;;
22963;SDS011;11648;49.306;6.934;2023-05-10T05:00:56;4.53;;;3.20;;
22963;SDS011;11648;49.306;6.934;2023-05-10T05:03:23;4.97;;;3.70;;
22963;SDS011;11648;49.306;6.934;2023-05-10T05:05:50;5.03;;;3.43;;
22963;SDS011;11648;49.306;6.934;2023-05-10T05:08:16;3.80;;;3.27;;
22963;SDS011;11648;49.306;6.934;2023-05-10T05:10:43;5.13;;;3.40;;
22963;SDS011;11648;49.306;6.934;2023-05-10T05:13:12;4.37;;;3.23;;
22963;SDS011;11648;49.306;6.934;2023-05-10T05:15:38;6.23;;;3.60;;
22963;SDS011;11648;49.306;6.934;2023-05-10T05:18:05;3.93;;;3.10;;
22963;SDS011;11648;49.306;6.934;2023-05-10T05:20:35;3.97;;;2.83;;
22963;SDS011;11648;49.306;6.934;2023-05-10T05:23:01;5.23;;;3.23;;
22963;SDS011;11648;49.306;6.934;2023-05-10T05:25:28;3.77;;;2.90;;
22963;SDS011;11648;49.306;6.934;2023-05-10T05:27:55;3.37;;;3.00;;
22963;SDS011;11648;49.306;6.934;2023-05-10T05:30:22;4.03;;;2.60;;
22963;SDS011;11648;49.306;6.934;2023-05-10T05:32:48;6.67;;;2.50;;
22963;SDS011;11648;49.306;6.934;2023-05-10T05:35:15;4.27;;;2.80;;
22963;SDS011;11648;49.306;6.934;2023-05-10T05:37:42;5.30;;;2.60;;
22963;SDS011;11648;49.306;6.934;2023-05-10T05:40:12;5.80;;;2.70;;
22963;SDS011;11648;49.306;6.934;2023-05-10T05:42:39;3.70;;;2.27;;
22963;SDS011;11648;49.306;6.934;2023-05-10T05:45:06;4.50;;;2.23;;
22963;SDS011;11648;49.306;6.934;2023-05-10T05:47:33;4.33;;;2.50;;
22963;SDS011;11648;49.306;6.934;2023-05-10T05:50:00;4.30;;;2.20;;
22963;SDS011;11648;49.306;6.934;2023-05-10T05:52:26;3.70;;;2.17;;
22963;SDS011;11648;49.306;6.934;2023-05-10T05:54:53;3.37;;;2.10;;
22963;SDS011;11648;49.306;6.934;2023-05-10T05:57:20;4.37;;;2.07;;
22963;SDS011;11648;49.306;6.934;2023-05-10T05:59:46;3.10;;;1.93;;
22963;SDS011;11648;49.306;6.934;2023-05-10T06:02:13;4.00;;;1.90;;
22963;SDS011;11648;49.306;6.934;2023-05-10T06:04:40;3.17;;;2.10;;
22963;SDS011;11648;49.306;6.934;2023-05-10T06:07:10;3.83;;;2.00;;
22963;SDS011;11648;49.306;6.934;2023-05-10T06:09:37;3.67;;;1.80;;
22963;SDS011;11648;49.306;6.934;2023-05-10T06:12:04;3.63;;;1.60;;
22963;SDS011;11648;49.306;6.934;2023-05-10T06:14:31;3.17;;;1.50;;
22963;SDS011;11648;49.306;6.934;2023-05-10T06:16:58;2.33;;;1.30;;
22963;SDS011;11648;49.306;6.934;2023-05-10T06:19:26;2.77;;;1.47;;
22963;SDS011;11648;49.306;6.934;2023-05-10T06:21:54;1.80;;;1.30;;
22963;SDS011;11648;49.306;6.934;2023-05-10T06:24:21;2.63;;;1.27;;
22963;SDS011;11648;49.306;6.934;2023-05-10T06:26:48;3.57;;;1.30;;
22963;SDS011;11648;49.306;6.934;2023-05-10T06:29:16;2.17;;;1.33;;
22963;SDS011;11648;49.306;6.934;2023-05-10T06:31:43;2.30;;;1.20;;
22963;SDS011;11648;49.306;6.934;2023-05-10T06:34:09;2.73;;;1.30;;
22963;SDS011;11648;49.306;6.934;2023-05-10T06:36:38;4.33;;;1.50;;
22963;SDS011;11648;49.306;6.934;2023-05-10T06:39:04;1.97;;;1.33;;
22963;SDS011;11648;49.306;6.934;2023-05-10T06:41:31;3.17;;;1.67;;
22963;SDS011;11648;49.306;6.934;2023-05-10T06:43:58;2.27;;;1.30;;
22963;SDS011;11648;49.306;6.934;2023-05-10T06:46:25;2.70;;;1.50;;
22963;SDS011;11648;49.306;6.934;2023-05-10T06:48:52;2.23;;;1.40;;
22963;SDS011;11648;49.306;6.934;2023-05-10T06:51:18;2.37;;;1.37;;
22963;SDS011;11648;49.306;6.934;2023-05-10T06:53:47;2.67;;;1.30;;
22963;SDS011;11648;49.306;6.934;2023-05-10T06:56:14;1.93;;;1.20;;
22963;SDS011;11648;49.306;6.934;2023-05-10T06:58:40;3.60;;;1.40;;
22963;SDS011;11648;49.306;6.934;2023-05-10T07:01:07;1.30;;;0.90;;
22963;SDS011;11648;49.306;6.934;2023-05-10T07:03:34;3.27;;;1.20;;
22963;SDS011;11648;49.306;6.934;2023-05-10T07:06:01;2.77;;;1.30;;
22963;SDS011;11648;49.306;6.934;2023-05-10T07:08:30;2.20;;;1.20;;
22963;SDS011;11648;49.306;6.934;2023-05-10T07:11:04;2.13;;;1.10;;
22963;SDS011;11648;49.306;6.934;2023-05-10T07:13:36;2.40;;;1.20;;
22963;SDS011;11648;49.306;6.934;2023-05-10T07:16:05;2.17;;;0.97;;
22963;SDS011;11648;49.306;6.934;2023-05-10T07:18:32;1.53;;;0.90;;
22963;SDS011;11648;49.306;6.934;2023-05-10T07:20:59;1.80;;;0.90;;
22963;SDS011;11648;49.306;6.934;2023-05-10T07:23:26;1.53;;;0.70;;
22963;SDS011;11648;49.306;6.934;2023-05-10T07:25:53;1.63;;;0.80;;
22963;SDS011;11648;49.306;6.934;2023-05-10T07:28:20;3.00;;;1.10;;
22963;SDS011;11648;49.306;6.934;2023-05-10T07:30:46;2.77;;;0.87;;
22963;SDS011;11648;49.306;6.934;2023-05-10T07:33:13;1.13;;;0.80;;
22963;SDS011;11648;49.306;6.934;2023-05-10T07:35:41;4.30;;;0.80;;
22963;SDS011;11648;49.306;6.934;2023-05-10T07:38:08;3.03;;;0.87;;
22963;SDS011;11648;49.306;6.934;2023-05-10T07:40:34;1.83;;;1.00;;
22963;SDS011;11648;49.306;6.934;2023-05-10T07:43:01;4.47;;;1.17;;
22963;SDS011;11648;49.306;6.934;2023-05-10T07:45:28;2.90;;;1.00;;
22963;SDS011;11648;49.306;6.934;2023-05-10T07:47:55;2.37;;;0.90;;
22963;SDS011;11648;49.306;6.934;2023-05-10T07:50:21;5.47;;;1.07;;
22963;SDS011;11648;49.306;6.934;2023-05-10T07:52:48;1.90;;;0.87;;
22963;SDS011;11648;49.306;6.934;2023-05-10T07:55:15;1.50;;;0.90;;
22963;SDS011;11648;49.306;6.934;2023-05-10T07:57:42;1.93;;;1.00;;
22963;SDS011;11648;49.306;6.934;2023-05-10T08:00:09;1.40;;;0.80;;
22963;SDS011;11648;49.306;6.934;2023-05-10T08:02:39;2.47;;;0.90;;
22963;SDS011;11648;49.306;6.934;2023-05-10T08:05:07;1.53;;;0.73;;
22963;SDS011;11648;49.306;6.934;2023-05-10T08:07:34;2.07;;;0.80;;
22963;SDS011;11648;49.306;6.934;2023-05-10T08:10:01;1.37;;;0.80;;
22963;SDS011;11648;49.306;6.934;2023-05-10T08:12:30;2.47;;;0.83;;
22963;SDS011;11648;49.306;6.934;2023-05-10T08:14:56;2.97;;;0.80;;
22963;SDS011;11648;49.306;6.934;2023-05-10T08:17:23;3.20;;;0.80;;
22963;SDS011;11648;49.306;6.934;2023-05-10T08:19:50;3.57;;;1.00;;
22963;SDS011;11648;49.306;6.934;2023-05-10T08:22:16;2.73;;;0.70;;
22963;SDS011;11648;49.306;6.934;2023-05-10T08:24:43;3.67;;;1.03;;
22963;SDS011;11648;49.306;6.934;2023-05-10T08:27:10;5.50;;;1.10;;
22963;SDS011;11648;49.306;6.934;2023-05-10T08:29:37;4.40;;;0.90;;
22963;SDS011;11648;49.306;6.934;2023-05-10T08:32:16;4.20;;;1.00;;
22963;SDS011;11648;49.306;6.934;2023-05-10T08:34:43;4.73;;;1.00;;
22963;SDS011;11648;49.306;6.934;2023-05-10T08:37:10;3.43;;;0.90;;
22963;SDS011;11648;49.306;6.934;2023-05-10T08:39:39;3.77;;;1.00;;
22963;SDS011;11648;49.306;6.934;2023-05-10T08:42:06;5.43;;;1.13;;
22963;SDS011;11648;49.306;6.934;2023-05-10T08:44:35;7.73;;;1.10;;
22963;SDS011;11648;49.306;6.934;2023-05-10T08:47:06;3.10;;;1.20;;
22963;SDS011;11648;49.306;6.934;2023-05-10T08:49:33;4.83;;;1.10;;
22963;SDS011;11648;49.306;6.934;2023-05-10T08:52:04;4.87;;;1.20;;
22963;SDS011;11648;49.306;6.934;2023-05-10T08:54:33;4.87;;;0.83;;
22963;SDS011;11648;49.306;6.934;2023-05-10T08:57:01;3.67;;;1.17;;
22963;SDS011;11648;49.306;6.934;2023-05-10T08:59:27;3.60;;;0.80;;
22963;SDS011;11648;49.306;6.934;2023-05-10T09:01:58;1.50;;;0.50;;
22963;SDS011;11648;49.306;6.934;2023-05-10T09:04:26;2.67;;;0.40;;
22963;SDS011;11648;49.306;6.934;2023-05-10T09:06:53;3.77;;;0.60;;
22963;SDS011;11648;49.306;6.934;2023-05-10T09:09:20;3.00;;;0.60;;
22963;SDS011;11648;49.306;6.934;2023-05-10T09:11:48;2.83;;;0.80;;
22963;SDS011;11648;49.306;6.934;2023-05-10T09:14:14;3.67;;;0.60;;
22963;SDS011;11648;49.306;6.934;2023-05-10T09:16:42;6.30;;;0.70;;
22963;SDS011;11648;49.306;6.934;2023-05-10T09:19:09;4.60;;;0.80;;
22963;SDS011;11648;49.306;6.934;2023-05-10T09:21:36;4.07;;;0.70;;
22963;SDS011;11648;49.306;6.934;2023-05-10T09:24:05;3.37;;;0.80;;
22963;SDS011;11648;49.306;6.934;2023-05-10T09:26:33;3.97;;;0.60;;
22963;SDS011;11648;49.306;6.934;2023-05-10T09:29:02;4.47;;;0.60;;
22963;SDS011;11648;49.306;6.934;2023-05-10T09:31:48;2.07;;;0.60;;
22963;SDS011;11648;49.306;6.934;2023-05-10T09:34:30;2.70;;;0.70;;
22963;SDS011;11648;49.306;6.934;2023-05-10T09:36:59;4.13;;;0.60;;
22963;SDS011;11648;49.306;6.934;2023-05-10T09:39:29;1.60;;;0.50;;
22963;SDS011;11648;49.306;6.934;2023-05-10T09:42:04;2.73;;;0.60;;
22963;SDS011;11648;49.306;6.934;2023-05-10T09:44:32;1.90;;;0.50;;
22963;SDS011;11648;49.306;6.934;2023-05-10T09:47:03;3.67;;;0.50;;
22963;SDS011;11648;49.306;6.934;2023-05-10T09:49:30;2.30;;;0.50;;
22963;SDS011;11648;49.306;6.934;2023-05-10T09:52:00;2.03;;;0.50;;
22963;SDS011;11648;49.306;6.934;2023-05-10T09:54:27;4.65;;;0.38;;
22963;SDS011;11648;49.306;6.934;2023-05-10T09:56:54;2.20;;;0.55;;
22963;SDS011;11648;49.306;6.934;2023-05-10T09:59:21;3.07;;;0.57;;
22963;SDS011;11648;49.306;6.934;2023-05-10T10:01:53;1.73;;;0.57;;
22963;SDS011;11648;49.306;6.934;2023-05-10T10:04:26;4.03;;;0.80;;
22963;SDS011;11648;49.306;6.934;2023-05-10T10:07:03;3.10;;;0.60;;
22963;SDS011;11648;49.306;6.934;2023-05-10T10:09:31;2.60;;;0.50;;
22963;SDS011;11648;49.306;6.934;2023-05-10T10:12:02;1.93;;;0.70;;
22963;SDS011;11648;49.306;6.934;2023-05-10T10:14:30;2.37;;;0.50;;
22963;SDS011;11648;49.306;6.934;2023-05-10T10:16:56;2.03;;;0.40;;
22963;SDS011;11648;49.306;6.934;2023-05-10T10:19:34;1.93;;;0.53;;
22963;SDS011;11648;49.306;6.934;2023-05-10T10:22:02;3.00;;;0.70;;
22963;SDS011;11648;49.306;6.934;2023-05-10T10:24:29;2.03;;;0.60;;
22963;SDS011;11648;49.306;6.934;2023-05-10T10:26:57;2.80;;;0.80;;
22963;SDS011;11648;49.306;6.934;2023-05-10T10:29:39;1.90;;;0.70;;
22963;SDS011;11648;49.306;6.934;2023-05-10T10:34:56;2.87;;;0.60;;
22963;SDS011;11648;49.306;6.934;2023-05-10T10:37:23;2.40;;;0.50;;
22963;SDS011;11648;49.306;6.934;2023-05-10T10:40:22;3.77;;;0.50;;
22963;SDS011;11648;49.306;6.934;2023-05-10T10:42:53;1.03;;;0.40;;
22963;SDS011;11648;49.306;6.934;2023-05-10T10:45:21;2.67;;;0.50;;
22963;SDS011;11648;49.306;6.934;2023-05-10T10:47:53;2.63;;;0.50;;
22963;SDS011;11648;49.306;6.934;2023-05-10T10:50:43;2.40;;;0.50;;
22963;SDS011;11648;49.306;6.934;2023-05-10T10:53:12;1.27;;;0.40;;
22963;SDS011;11648;49.306;6.934;2023-05-10T10:55:46;1.70;;;0.60;;
22963;SDS011;11648;49.306;6.934;2023-05-10T10:58:29;1.53;;;0.50;;
22963;SDS011;11648;49.306;6.934;2023-05-10T11:01:18;6.17;;;0.50;;
22963;SDS011;11648;49.306;6.934;2023-05-10T11:06:46;2.73;;;0.53;;
22963;SDS011;11648;49.306;6.934;2023-05-10T11:09:13;4.40;;;0.60;;
22963;SDS011;11648;49.306;6.934;2023-05-10T11:11:50;4.00;;;0.53;;
22963;SDS011;11648;49.306;6.934;2023-05-10T11:14:21;2.73;;;0.50;;
22963;SDS011;11648;49.306;6.934;2023-05-10T11:16:51;1.10;;;0.40;;
22963;SDS011;11648;49.306;6.934;2023-05-10T11:19:19;3.23;;;0.53;;
22963;SDS011;11648;49.306;6.934;2023-05-10T11:21:50;3.07;;;0.50;;
22963;SDS011;11648;49.306;6.934;2023-05-10T11:24:37;3.13;;;0.60;;
22963;SDS011;11648;49.306;6.934;2023-05-10T11:27:04;2.47;;;0.50;;
22963;SDS011;11648;49.306;6.934;2023-05-10T11:29:31;2.30;;;0.60;;
22963;SDS011;11648;49.306;6.934;2023-05-10T11:31:58;2.07;;;0.50;;
22963;SDS011;11648;49.306;6.934;2023-05-10T11:34:26;1.83;;;0.50;;
22963;SDS011;11648;49.306;6.934;2023-05-10T11:36:55;3.13;;;0.60;;
22963;SDS011;11648;49.306;6.934;2023-05-10T11:39:29;1.63;;;0.40;;
22963;SDS011;11648;49.306;6.934;2023-05-10T11:41:58;1.60;;;0.50;;
22963;SDS011;11648;49.306;6.934;2023-05-10T11:44:31;3.73;;;0.60;;
22963;SDS011;11648;49.306;6.934;2023-05-10T11:46:59;1.23;;;0.50;;
22963;SDS011;11648;49.306;6.934;2023-05-10T11:49:27;2.30;;;0.60;;
22963;SDS011;11648;49.306;6.934;2023-05-10T11:52:03;1.57;;;0.40;;
22963;SDS011;11648;49.306;6.934;2023-05-10T11:54:30;1.13;;;0.50;;
22963;SDS011;11648;49.306;6.934;2023-05-10T11:56:57;3.73;;;0.40;;
22963;SDS011;11648;49.306;6.934;2023-05-10T11:59:24;2.43;;;1.10;;
22963;SDS011;11648;49.306;6.934;2023-05-10T12:01:51;2.17;;;0.50;;
22963;SDS011;11648;49.306;6.934;2023-05-10T12:04:18;3.13;;;0.50;;
22963;SDS011;11648;49.306;6.934;2023-05-10T12:06:45;1.97;;;0.30;;
22963;SDS011;11648;49.306;6.934;2023-05-10T12:09:12;2.63;;;0.50;;
22963;SDS011;11648;49.306;6.934;2023-05-10T12:11:40;0.87;;;0.40;;
22963;SDS011;11648;49.306;6.934;2023-05-10T12:14:10;2.90;;;0.60;;
22963;SDS011;11648;49.306;6.934;2023-05-10T12:16:36;1.40;;;0.40;;
22963;SDS011;11648;49.306;6.934;2023-05-10T12:19:03;1.60;;;0.30;;
22963;SDS011;11648;49.306;6.934;2023-05-10T12:21:32;3.80;;;0.50;;
22963;SDS011;11648;49.306;6.934;2023-05-10T12:24:01;1.13;;;0.30;;
22963;SDS011;11648;49.306;6.934;2023-05-10T12:26:29;1.17;;;0.30;;
22963;SDS011;11648;49.306;6.934;2023-05-10T12:29:11;1.53;;;0.50;;
22963;SDS011;11648;49.306;6.934;2023-05-10T12:34:35;1.67;;;0.60;;
22963;SDS011;11648;49.306;6.934;2023-05-10T12:37:05;2.63;;;0.60;;
22963;SDS011;11648;49.306;6.934;2023-05-10T12:39:42;4.03;;;2.03;;
22963;SDS011;11648;49.306;6.934;2023-05-10T12:42:11;1.33;;;0.47;;
22963;SDS011;11648;49.306;6.934;2023-05-10T12:44:38;2.77;;;0.50;;
22963;SDS011;11648;49.306;6.934;2023-05-10T12:47:05;1.63;;;0.50;;
22963;SDS011;11648;49.306;6.934;2023-05-10T12:49:32;2.07;;;0.40;;
22963;SDS011;11648;49.306;6.934;2023-05-10T12:51:59;1.53;;;0.40;;
22963;SDS011;11648;49.306;6.934;2023-05-10T12:54:25;1.00;;;0.40;;
22963;SDS011;11648;49.306;6.934;2023-05-10T12:56:52;3.30;;;0.60;;
22963;SDS011;11648;49.306;6.934;2023-05-10T12:59:19;2.50;;;0.40;;
22963;SDS011;11648;49.306;6.934;2023-05-10T13:01:45;2.90;;;0.50;;
22963;SDS011;11648;49.306;6.934;2023-05-10T13:04:12;2.50;;;0.37;;
22963;SDS011;11648;49.306;6.934;2023-05-10T13:06:39;1.73;;;0.50;;
22963;SDS011;11648;49.306;6.934;2023-05-10T13:09:05;1.30;;;0.40;;
22963;SDS011;11648;49.306;6.934;2023-05-10T13:11:33;0.90;;;0.30;;
22963;SDS011;11648;49.306;6.934;2023-05-10T13:13:59;1.00;;;0.30;;
22963;SDS011;11648;49.306;6.934;2023-05-10T13:16:26;0.80;;;0.40;;
22963;SDS011;11648;49.306;6.934;2023-05-10T13:18:53;1.87;;;0.50;;
22963;SDS011;11648;49.306;6.934;2023-05-10T13:21:20;2.57;;;0.47;;
22963;SDS011;11648;49.306;6.934;2023-05-10T13:23:47;1.30;;;0.30;;
22963;SDS011;11648;49.306;6.934;2023-05-10T13:26:13;1.37;;;0.30;;
22963;SDS011;11648;49.306;6.934;2023-05-10T13:28:40;2.37;;;0.37;;
22963;SDS011;11648;49.306;6.934;2023-05-10T13:31:07;2.33;;;0.40;;
22963;SDS011;11648;49.306;6.934;2023-05-10T13:33:34;1.03;;;0.30;;
22963;SDS011;11648;49.306;6.934;2023-05-10T13:36:00;1.57;;;0.40;;
22963;SDS011;11648;49.306;6.934;2023-05-10T13:38:27;2.10;;;0.40;;
22963;SDS011;11648;49.306;6.934;2023-05-10T13:40:54;1.87;;;0.50;;
22963;SDS011;11648;49.306;6.934;2023-05-10T13:43:20;2.83;;;0.40;;
22963;SDS011;11648;49.306;6.934;2023-05-10T13:45:47;1.43;;;0.47;;
22963;SDS011;11648;49.306;6.934;2023-05-10T13:48:14;1.70;;;0.50;;
22963;SDS011;11648;49.306;6.934;2023-05-10T13:50:41;2.80;;;0.50;;
22963;SDS011;11648;49.306;6.934;2023-05-10T13:53:09;2.87;;;0.50;;
22963;SDS011;11648;49.306;6.934;2023-05-10T13:55:36;1.97;;;0.47;;
22963;SDS011;11648;49.306;6.934;2023-05-10T13:58:02;1.27;;;0.50;;
22963;SDS011;11648;49.306;6.934;2023-05-10T14:00:29;1.30;;;0.40;;
22963;SDS011;11648;49.306;6.934;2023-05-10T14:02:56;1.77;;;0.70;;
22963;SDS011;11648;49.306;6.934;2023-05-10T14:05:23;2.20;;;0.40;;
22963;SDS011;11648;49.306;6.934;2023-05-10T14:07:52;0.93;;;0.40;;
22963;SDS011;11648;49.306;6.934;2023-05-10T14:10:18;2.50;;;0.30;;
22963;SDS011;11648;49.306;6.934;2023-05-10T14:12:45;1.73;;;0.50;;
22963;SDS011;11648;49.306;6.934;2023-05-10T14:15:12;1.23;;;0.50;;
22963;SDS011;11648;49.306;6.934;2023-05-10T14:17:38;3.10;;;0.90;;
22963;SDS011;11648;49.306;6.934;2023-05-10T14:20:06;3.77;;;0.93;;
22963;SDS011;11648;49.306;6.934;2023-05-10T14:22:33;1.33;;;0.50;;
22963;SDS011;11648;49.306;6.934;2023-05-10T14:25:00;2.07;;;0.67;;
22963;SDS011;11648;49.306;6.934;2023-05-10T14:27:27;2.13;;;0.50;;
22963;SDS011;11648;49.306;6.934;2023-05-10T14:29:53;0.83;;;0.40;;
22963;SDS011;11648;49.306;6.934;2023-05-10T14:32:21;4.10;;;0.40;;
22963;SDS011;11648;49.306;6.934;2023-05-10T14:34:48;3.00;;;0.50;;
22963;SDS011;11648;49.306;6.934;2023-05-10T14:37:14;2.33;;;0.40;;
22963;SDS011;11648;49.306;6.934;2023-05-10T14:39:41;1.13;;;0.40;;
22963;SDS011;11648;49.306;6.934;2023-05-10T14:42:09;1.50;;;0.40;;
22963;SDS011;11648;49.306;6.934;2023-05-10T14:44:35;1.27;;;0.40;;
22963;SDS011;11648;49.306;6.934;2023-05-10T14:47:02;1.43;;;0.70;;
22963;SDS011;11648;49.306;6.934;2023-05-10T14:49:29;1.60;;;0.50;;
22963;SDS011;11648;49.306;6.934;2023-05-10T14:51:55;1.47;;;0.40;;
22963;SDS011;11648;49.306;6.934;2023-05-10T14:54:22;2.30;;;0.57;;
22963;SDS011;11648;49.306;6.934;2023-05-10T14:56:49;1.67;;;0.50;;
22963;SDS011;11648;49.306;6.934;2023-05-10T14:59:16;1.77;;;0.50;;
22963;SDS011;11648;49.306;6.934;2023-05-10T15:01:43;3.37;;;0.60;;
22963;SDS011;11648;49.306;6.934;2023-05-10T15:04:10;2.13;;;0.60;;
22963;SDS011;11648;49.306;6.934;2023-05-10T15:06:39;1.43;;;0.30;;
22963;SDS011;11648;49.306;6.934;2023-05-10T15:09:06;1.13;;;0.40;;
22963;SDS011;11648;49.306;6.934;2023-05-10T15:11:33;1.67;;;0.40;;
22963;SDS011;11648;49.306;6.934;2023-05-10T15:14:00;1.43;;;0.50;;
22963;SDS011;11648;49.306;6.934;2023-05-10T15:16:28;1.90;;;0.50;;
22963;SDS011;11648;49.306;6.934;2023-05-10T15:18:54;1.47;;;0.50;;
22963;SDS011;11648;49.306;6.934;2023-05-10T15:21:21;1.57;;;0.40;;
22963;SDS011;11648;49.306;6.934;2023-05-10T15:23:48;2.73;;;0.53;;
22963;SDS011;11648;49.306;6.934;2023-05-10T15:26:15;2.13;;;0.57;;